Ocean Tower — WDE4689 — position and weather

sailwx.info

Track history (hours):
 
Tides and Currents Weather Stations Pressure Air Temp Water Temp Dewpoint Dewpoint Depression Visibility Wind Speed Wind Dir Waves Ship Positions

Ocean Tower

Owner: Tug Ocean Tower, Tampa, FL. More information available from US FCC via Universal Licensing System and Coast Guard Vessel Documentation Center.

Last reported at 2018-Jun-16 20:31 UTC. Time now 2018-Jun-18 11:35 UTC.
Position N 28°52' W 094°50'.

Length 34 m; draft 4.1 m.

Type: . MMSI: 367356580.

Date/timePositionNaut miles runAvg speedWind from/ knotsBaromVisibWave heightAir tempDewpointWater temp
2018-Jun-16 20:31N 28°52' W 094°50'110.1
2018-Jun-16 20:26N 28°52' W 094°51'410.1
2018-Jun-16 20:00N 28°53' W 094°56'510.1
2018-Jun-16 19:30N 28°53' W 095°01'510.4
2018-Jun-16 19:00N 28°54' W 095°07'510.4
2018-Jun-16 18:31N 28°55' W 095°13'4 8.7
2018-Jun-16 18:01N 28°56' W 095°18'2 3.3
2018-Jun-16 17:30N 28°57' W 095°20'0 0.3
2018-Jun-16 17:01N 28°57' W 095°20'0 0.0
2018-Jun-16 16:29N 28°57' W 095°20'0 0.0
2018-Jun-16 16:01N 28°57' W 095°20'0 0.0
2018-Jun-16 15:30N 28°57' W 095°20'0 0.0
2018-Jun-16 15:01N 28°57' W 095°20'0 0.0
2018-Jun-16 14:30N 28°57' W 095°20'0 0.0
2018-Jun-16 13:58N 28°57' W 095°20'0 0.0
2018-Jun-16 13:20N 28°57' W 095°20'0 0.0
2018-Jun-16 13:00N 28°57' W 095°20'0 0.0
2018-Jun-16 12:30N 28°57' W 095°20'0 0.0
2018-Jun-16 12:00N 28°57' W 095°20'0 0.0
2018-Jun-16 09:01N 28°57' W 095°20'0 0.0
2018-Jun-16 09:00N 28°57' W 095°20'0 0.0
2018-Jun-16 08:15N 28°57' W 095°20'0 0.0
2018-Jun-16 08:01N 28°57' W 095°20'0 0.0
2018-Jun-16 07:21N 28°57' W 095°20'0 0.0
2018-Jun-16 06:56N 28°57' W 095°20'1 2.9
2018-Jun-16 06:30N 28°56' W 095°18'0 0.4
2018-Jun-16 05:27N 28°56' W 095°18'1 3.2
2018-Jun-16 04:59N 28°55' W 095°17'1 3.1
2018-Jun-16 04:31N 28°54' W 095°16'1 2.2
2018-Jun-16 04:01N 28°55' W 095°17'1 2.3
2018-Jun-16 03:24N 28°54' W 095°16'1 1.8
2018-Jun-16 02:58N 28°53' W 095°16'1 2.3
2018-Jun-16 02:30N 28°54' W 095°16'1 1.5
2018-Jun-16 02:00N 28°53' W 095°16'0 0.7
2018-Jun-16 01:30N 28°53' W 095°16'1 2.5
2018-Jun-16 01:01N 28°54' W 095°17'2 3.4
2018-Jun-16 00:19N 28°52' W 095°15'1 2.4
2018-Jun-15 23:59N 28°53' W 095°16'1 2.4
2018-Jun-15 23:30N 28°54' W 095°16'2 3.7
2018-Jun-15 23:00N 28°53' W 095°15'2 3.4
2018-Jun-15 22:31N 28°51' W 095°14'1 2.5
2018-Jun-15 22:00N 28°52' W 095°15'1 2.6
2018-Jun-15 21:31N 28°53' W 095°16'1 1.2
2018-Jun-15 20:58N 28°53' W 095°16'2 3.4
2018-Jun-15 20:27N 28°52' W 095°15'1 0.9
2018-Jun-15 19:49N 28°52' W 095°14'1 1.8
2018-Jun-15 19:29N 28°52' W 095°15'1 2.6
2018-Jun-15 19:00N 28°53' W 095°16'1 1.6
2018-Jun-15 18:27N 28°53' W 095°15'1 2.4
2018-Jun-15 18:00N 28°53' W 095°16'2 4.0
2018-Jun-15 17:31N 28°55' W 095°17'2 3.6
2018-Jun-15 17:00N 28°56' W 095°18'0 0.1
2018-Jun-15 16:30N 28°56' W 095°18'0 0.0
2018-Jun-15 16:00N 28°56' W 095°18'0 0.0
2018-Jun-15 14:56N 28°56' W 095°18'0 0.0
2018-Jun-15 14:30N 28°56' W 095°18'0 0.0
2018-Jun-15 13:58N 28°56' W 095°18'0 0.0
2018-Jun-15 13:31N 28°56' W 095°18'0 0.0
2018-Jun-15 13:00N 28°56' W 095°18'0 0.0
2018-Jun-15 12:30N 28°56' W 095°18'0 0.0
2018-Jun-15 12:00N 28°56' W 095°18'0 0.0
2018-Jun-15 11:29N 28°56' W 095°18'0 0.0
2018-Jun-15 11:00N 28°56' W 095°18'0 0.0
2018-Jun-15 10:29N 28°56' W 095°18'0 0.0
2018-Jun-15 09:59N 28°56' W 095°18'0 0.0
2018-Jun-15 09:24N 28°56' W 095°18'0 0.0
2018-Jun-15 09:00N 28°56' W 095°18'0 0.0
2018-Jun-15 08:30N 28°56' W 095°18'1 1.8
2018-Jun-15 07:59N 28°56' W 095°17'2 4.9
2018-Jun-15 07:29N 28°54' W 095°16'1 2.1
2018-Jun-15 06:59N 28°54' W 095°17'2 4.2
2018-Jun-15 06:30N 28°56' W 095°18'1 1.3
2018-Jun-15 06:00N 28°56' W 095°18'0 0.2
2018-Jun-15 04:36N 28°56' W 095°18'0 0.4
2018-Jun-15 04:31N 28°56' W 095°18'0 0.1
2018-Jun-15 03:51N 28°56' W 095°18'0 0.0
2018-Jun-15 03:28N 28°56' W 095°18'0 0.0
2018-Jun-15 02:58N 28°56' W 095°18'0 0.0
2018-Jun-15 02:30N 28°56' W 095°18'0 0.0
2018-Jun-15 01:57N 28°56' W 095°18'0 0.1
2018-Jun-15 01:29N 28°56' W 095°18'0 0.1
2018-Jun-15 00:53N 28°56' W 095°18'0 0.6
2018-Jun-15 00:31N 28°56' W 095°18'1 2.3
2018-Jun-15 00:00N 28°56' W 095°17'3 5.0
2018-Jun-14 23:27N 28°53' W 095°16'1 1.1
2018-Jun-14 22:59N 28°53' W 095°16'2 4.8
2018-Jun-14 22:29N 28°55' W 095°17'2 3.4
2018-Jun-14 21:58N 28°56' W 095°18'0 0.4
2018-Jun-14 21:30N 28°56' W 095°18'0 0.1
2018-Jun-14 19:44N 28°56' W 095°18'0 0.5
2018-Jun-14 19:24N 28°56' W 095°18'0 0.0
2018-Jun-14 19:00N 28°56' W 095°18'0 0.1
2018-Jun-14 18:29N 28°56' W 095°18'0 0.3
2018-Jun-14 17:58N 28°57' W 095°18'0 0.2
2018-Jun-14 17:29N 28°56' W 095°18'0 0.0
2018-Jun-14 16:12N 28°56' W 095°18'0 0.1
2018-Jun-14 15:57N 28°56' W 095°18'0 0.0
2018-Jun-14 15:25N 28°56' W 095°18'0 0.0
2018-Jun-14 14:55N 28°56' W 095°18'0 0.0
2018-Jun-14 14:30N 28°56' W 095°18'0 0.0
2018-Jun-14 13:58N 28°56' W 095°18'0 0.1
2018-Jun-14 13:27N 28°56' W 095°18'0 0.2
2018-Jun-14 13:00N 28°56' W 095°18'0 0.0
2018-Jun-14 12:15N 28°56' W 095°18'0 0.0
2018-Jun-14 11:55N 28°56' W 095°18'0 0.1
2018-Jun-14 10:04N 28°56' W 095°18'0 0.0
2018-Jun-14 09:59N 28°56' W 095°18'2 2.9
2018-Jun-14 09:14N 28°55' W 095°17'2 4.1
2018-Jun-14 08:46N 28°53' W 095°16'1 4.0
2018-Jun-14 08:31N 28°54' W 095°17'2 4.1
2018-Jun-14 08:01N 28°56' W 095°17'1 2.2
2018-Jun-14 07:27N 28°56' W 095°18'0 0.4
2018-Jun-14 07:00N 28°56' W 095°18'0 0.2
2018-Jun-14 06:30N 28°56' W 095°19'0 0.0
2018-Jun-14 05:59N 28°56' W 095°18'0 0.0
2018-Jun-14 05:25N 28°56' W 095°18'0 0.0
2018-Jun-14 04:58N 28°56' W 095°18'0 0.0
2018-Jun-14 04:31N 28°56' W 095°18'0 0.2
2018-Jun-14 04:00N 28°56' W 095°18'0 0.0
2018-Jun-14 03:28N 28°56' W 095°18'0 0.0
2018-Jun-14 02:59N 28°56' W 095°18'0 0.0
2018-Jun-14 02:28N 28°56' W 095°18'0 0.1
2018-Jun-14 01:46N 28°56' W 095°18'0 0.6
2018-Jun-14 01:31N 28°56' W 095°18'0 0.6
2018-Jun-14 00:53N 28°56' W 095°18'1 3.1
2018-Jun-14 00:29N 28°55' W 095°17'1 1.2
2018-Jun-14 00:00N 28°55' W 095°17'2 3.8
2018-Jun-13 23:27N 28°53' W 095°16'2 4.0
2018-Jun-13 22:59N 28°55' W 095°17'2 4.7
2018-Jun-13 22:31N 28°56' W 095°18'0 0.2
2018-Jun-13 21:57N 28°56' W 095°18'0 0.1
2018-Jun-13 21:24N 28°56' W 095°18'0 0.2
2018-Jun-13 20:56N 28°56' W 095°18'0 0.2
2018-Jun-13 20:30N 28°56' W 095°18'0 0.0
2018-Jun-13 20:01N 28°56' W 095°18'0 0.0
2018-Jun-13 19:31N 28°56' W 095°18'0 0.0
2018-Jun-13 19:00N 28°56' W 095°18'0 0.0
2018-Jun-13 18:30N 28°56' W 095°18'1 2.1
2018-Jun-13 18:00N 28°57' W 095°20'0 0.4
2018-Jun-13 17:30N 28°57' W 095°20'0 1.0
2018-Jun-13 17:01N 28°57' W 095°20'0 0.9
2018-Jun-13 16:30N 28°57' W 095°20'0 0.0
2018-Jun-13 16:00N 28°57' W 095°20'2 2.7
2018-Jun-13 15:18N 28°56' W 095°18'1 2.8
2018-Jun-13 14:59N 28°55' W 095°17'3 4.5
2018-Jun-13 14:25N 28°53' W 095°16'1 2.3
2018-Jun-13 14:00N 28°54' W 095°17'1 2.9
2018-Jun-13 13:30N 28°55' W 095°17'2 3.7
2018-Jun-13 13:00N 28°57' W 095°18'0 0.3
2018-Jun-13 12:29N 28°56' W 095°18'0 0.2
2018-Jun-13 11:58N 28°56' W 095°18'0 0.0
2018-Jun-13 10:46N 28°56' W 095°18'0 0.7
2018-Jun-13 10:29N 28°57' W 095°18'0 0.9
2018-Jun-13 09:56N 28°56' W 095°18'2 3.6
2018-Jun-13 09:23N 28°55' W 095°17'1 3.2
2018-Jun-13 09:00N 28°54' W 095°17'1 1.4
2018-Jun-13 08:18N 28°54' W 095°17'1 4.0
2018-Jun-13 08:00N 28°53' W 095°16'3 4.4
2018-Jun-13 07:15N 28°51' W 095°14'1 2.6
2018-Jun-13 06:47N 28°51' W 095°13'1 2.5
2018-Jun-13 06:20N 28°51' W 095°13'1 2.6
2018-Jun-13 05:50N 28°52' W 095°14'1 2.6
2018-Jun-13 05:30N 28°53' W 095°15'1 2.4
2018-Jun-13 04:59N 28°54' W 095°16'2 2.5
2018-Jun-13 04:23N 28°55' W 095°17'2 4.3
2018-Jun-13 04:00N 28°56' W 095°18'0 0.2
2018-Jun-13 03:07N 28°56' W 095°18'0 0.3
2018-Jun-13 02:18N 28°56' W 095°18'0 0.5
2018-Jun-13 01:54N 28°57' W 095°18'0 0.1
2018-Jun-13 01:30N 28°57' W 095°18'0 0.0
2018-Jun-13 00:54N 28°57' W 095°18'0 0.1
2018-Jun-13 00:29N 28°57' W 095°18'0 1.0
2018-Jun-13 00:00N 28°56' W 095°18'2 3.9
2018-Jun-12 23:29N 28°55' W 095°17'2 3.9
2018-Jun-12 22:51N 28°53' W 095°15'1 2.3
2018-Jun-12 22:29N 28°53' W 095°16'1 1.3
2018-Jun-12 22:00N 28°54' W 095°16'1 1.1
2018-Jun-12 21:30N 28°53' W 095°16'2 4.0
2018-Jun-12 21:00N 28°55' W 095°17'1 3.0
2018-Jun-12 20:30N 28°56' W 095°18'0 0.1
2018-Jun-12 19:59N 28°56' W 095°18'0 0.1
2018-Jun-12 19:18N 28°56' W 095°18'0 0.0
2018-Jun-12 18:35N 28°56' W 095°18'0 1.4
2018-Jun-12 18:30N 28°56' W 095°18'0 0.6
2018-Jun-12 17:59N 28°56' W 095°18'2 3.5
2018-Jun-12 17:30N 28°55' W 095°17'2 4.0
2018-Jun-12 17:00N 28°53' W 095°15'1 2.8
2018-Jun-12 16:30N 28°54' W 095°17'2 4.0
2018-Jun-12 16:00N 28°56' W 095°17'1 1.8
2018-Jun-12 15:29N 28°57' W 095°18'0 0.2
2018-Jun-12 15:01N 28°57' W 095°18'0 0.1
2018-Jun-12 13:38N 28°56' W 095°18'0 0.0
2018-Jun-12 13:12N 28°56' W 095°18'0 0.3
2018-Jun-12 13:00N 28°57' W 095°18'0 0.1
2018-Jun-12 12:29N 28°56' W 095°18'0 0.0
2018-Jun-12 11:46N 28°56' W 095°18'0 0.0
2018-Jun-12 11:31N 28°56' W 095°18'0 0.0
2018-Jun-12 02:30N 28°56' W 095°19'0 0.1
2018-Jun-12 02:00N 28°56' W 095°19'0 0.3
2018-Jun-12 01:29N 28°56' W 095°18'0 0.0
2018-Jun-12 00:59N 28°56' W 095°18'0 0.2
2018-Jun-11 23:54N 28°56' W 095°19'0 0.0
2018-Jun-11 23:30N 28°56' W 095°19'0 0.0
2018-Jun-11 23:01N 28°56' W 095°19'0 0.0
2018-Jun-11 22:29N 28°56' W 095°19'0 0.0
2018-Jun-11 21:58N 28°56' W 095°19'0 0.0
2018-Jun-11 21:30N 28°56' W 095°19'0 0.0
2018-Jun-11 21:00N 28°56' W 095°19'0 0.0
2018-Jun-11 20:30N 28°56' W 095°19'0 0.0
2018-Jun-11 19:59N 28°56' W 095°18'0 0.0
2018-Jun-11 19:30N 28°56' W 095°18'0 0.2
2018-Jun-11 18:59N 28°56' W 095°18'0 0.1
2018-Jun-11 18:30N 28°56' W 095°18'0 0.4
2018-Jun-11 17:54N 28°56' W 095°18'1 2.4
2018-Jun-11 17:26N 28°56' W 095°17'2 4.2
2018-Jun-11 17:01N 28°54' W 095°16'2 3.4
2018-Jun-11 16:27N 28°53' W 095°15'2 2.2
2018-Jun-11 15:29N 28°54' W 095°16'1 2.1
2018-Jun-11 14:49N 28°53' W 095°16'1 3.3
2018-Jun-11 14:29N 28°54' W 095°17'2 3.8
2018-Jun-11 14:00N 28°56' W 095°17'1 2.4
2018-Jun-11 13:30N 28°56' W 095°18'0 0.1
2018-Jun-11 12:56N 28°56' W 095°18'0 0.0
2018-Jun-11 12:29N 28°56' W 095°18'0 0.0
2018-Jun-11 11:59N 28°56' W 095°18'0 0.0
2018-Jun-11 11:30N 28°56' W 095°18'0 0.0
2018-Jun-11 10:58N 28°56' W 095°18'0 0.0
2018-Jun-11 10:30N 28°56' W 095°18'0 0.1
2018-Jun-11 10:00N 28°56' W 095°18'0 0.1
2018-Jun-11 09:31N 28°56' W 095°18'0 0.0
2018-Jun-11 08:59N 28°56' W 095°18'0 0.0
2018-Jun-11 08:29N 28°56' W 095°18'0 0.0
2018-Jun-11 07:59N 28°56' W 095°18'0 0.1
2018-Jun-11 07:25N 28°56' W 095°18'0 0.5
2018-Jun-11 06:48N 28°56' W 095°18'2 4.0
2018-Jun-11 06:25N 28°55' W 095°17'2 4.3
2018-Jun-11 06:00N 28°53' W 095°16'1 2.9
2018-Jun-11 05:30N 28°55' W 095°17'1 1.2
2018-Jun-11 04:45N 28°54' W 095°17'1 3.9
2018-Jun-11 04:29N 28°55' W 095°17'2 4.0
2018-Jun-11 04:01N 28°57' W 095°18'0 0.1
2018-Jun-11 03:04N 28°56' W 095°18'0 0.1
2018-Jun-11 02:59N 28°56' W 095°18'0 0.0
2018-Jun-11 02:01N 28°56' W 095°18'0 0.4
2018-Jun-11 01:59N 28°56' W 095°18'0 0.0
2018-Jun-11 01:25N 28°56' W 095°18'0 0.0
2018-Jun-11 00:59N 28°56' W 095°18'0 0.0
2018-Jun-11 00:17N 28°56' W 095°18'0 0.0
2018-Jun-10 23:02N 28°56' W 095°18'0 0.0
2018-Jun-10 22:53N 28°56' W 095°18'0 0.0
2018-Jun-10 21:08N 28°56' W 095°18'0 0.2
2018-Jun-10 20:41N 28°56' W 095°18'0 0.1
2018-Jun-10 19:18N 28°56' W 095°18'0 0.9
2018-Jun-10 18:56N 28°56' W 095°18'1 3.0
2018-Jun-10 18:30N 28°55' W 095°17'1 2.6
2018-Jun-10 18:00N 28°54' W 095°17'1 2.6
2018-Jun-10 17:30N 28°53' W 095°16'2 4.1
2018-Jun-10 17:01N 28°55' W 095°17'2 1.3
2018-Jun-10 15:30N 28°56' W 095°18'0 0.1
2018-Jun-10 14:58N 28°56' W 095°18'0 0.1
2018-Jun-10 13:48N 28°56' W 095°18'0 0.0
2018-Jun-10 13:24N 28°56' W 095°18'0 0.0
2018-Jun-10 13:00N 28°56' W 095°18'0 0.0
2018-Jun-10 12:30N 28°56' W 095°18'0 0.0
2018-Jun-10 12:00N 28°56' W 095°18'0 0.0
2018-Jun-10 11:30N 28°56' W 095°18'0 0.0
2018-Jun-10 11:00N 28°56' W 095°18'0 0.0
2018-Jun-10 10:30N 28°56' W 095°18'0 0.0
2018-Jun-10 09:42N 28°56' W 095°18'0 0.0
2018-Jun-10 09:12N 28°56' W 095°18'0 0.0
2018-Jun-10 09:00N 28°56' W 095°18'0 0.0
2018-Jun-10 08:27N 28°56' W 095°18'0 0.0
2018-Jun-10 07:57N 28°56' W 095°18'0 0.1
2018-Jun-10 07:19N 28°56' W 095°18'0 1.5
2018-Jun-10 07:00N 28°56' W 095°18'2 4.6
2018-Jun-10 06:30N 28°54' W 095°16'1 1.3
2018-Jun-10 05:59N 28°54' W 095°17'2 4.1
2018-Jun-10 05:30N 28°56' W 095°17'1 1.6
2018-Jun-10 04:40N 28°56' W 095°19'1 0.0
2018-Jun-09 04:56N 28°56' W 095°18'0 0.3
2018-Jun-09 03:42N 28°56' W 095°18'0 0.0
2018-Jun-09 03:12N 28°56' W 095°18'0 0.1
2018-Jun-09 02:58N 28°56' W 095°18'0 0.0
2018-Jun-09 01:52N 28°56' W 095°18'0 0.3
2018-Jun-09 01:26N 28°56' W 095°18'0 0.0
2018-Jun-08 14:36N 28°56' W 095°18'0 0.0
2018-Jun-08 14:30N 28°56' W 095°18'1 0.8
2018-Jun-08 13:47N 28°56' W 095°18'1 3.7
2018-Jun-08 13:30N 28°55' W 095°17'2 3.9
2018-Jun-08 12:53N 28°53' W 095°15'1 3.2
2018-Jun-08 12:30N 28°54' W 095°16'1 1.6
2018-Jun-08 12:00N 28°54' W 095°17'2 3.2
2018-Jun-08 11:30N 28°52' W 095°15'2 3.2
2018-Jun-08 10:58N 28°51' W 095°14'0 1.1
2018-Jun-08 10:30N 28°52' W 095°14'2 3.1
2018-Jun-08 10:00N 28°53' W 095°15'2 3.1
2018-Jun-08 09:30N 28°54' W 095°16'1 2.2
2018-Jun-08 09:00N 28°53' W 095°18'1 2.4
2018-Jun-08 08:30N 28°53' W 095°16'2 3.5
2018-Jun-08 08:00N 28°55' W 095°17'2 2.9
2018-Jun-08 07:22N 28°56' W 095°18'0 0.3
2018-Jun-08 06:51N 28°56' W 095°18'0 0.8
2018-Jun-08 06:30N 28°57' W 095°18'1 1.3
2018-Jun-08 06:00N 28°56' W 095°18'2 3.8
2018-Jun-08 05:30N 28°55' W 095°17'3 3.8
2018-Jun-08 04:51N 28°52' W 095°15'1 3.2
2018-Jun-08 04:24N 28°53' W 095°16'2 1.6
2018-Jun-08 03:28N 28°52' W 095°17'1 1.3
2018-Jun-08 03:00N 28°53' W 095°17'2 1.6
2018-Jun-08 01:48N 28°51' W 095°16'1 3.1
2018-Jun-08 01:28N 28°52' W 095°16'1 2.4
2018-Jun-08 01:01N 28°53' W 095°16'2 3.4
2018-Jun-08 00:30N 28°55' W 095°17'2 4.4
2018-Jun-08 00:00N 28°57' W 095°18'0 0.1
2018-Jun-07 23:28N 28°56' W 095°18'0 0.3
2018-Jun-07 22:55N 28°56' W 095°18'0 0.3
2018-Jun-07 22:30N 28°56' W 095°18'2 2.9
2018-Jun-07 21:58N 28°55' W 095°17'2 4.3
2018-Jun-07 21:26N 28°53' W 095°17'2 1.4
2018-Jun-07 20:20N 28°52' W 095°17'2 2.6
2018-Jun-07 19:32N 28°54' W 095°17'0 3.3
2018-Jun-07 19:27N 28°53' W 095°16'0 0.9
2018-Jun-07 19:00N 28°54' W 095°17'2 4.5
2018-Jun-07 18:31N 28°56' W 095°18'1 1.9
2018-Jun-07 18:00N 28°57' W 095°18'0 0.1
2018-Jun-07 17:29N 28°56' W 095°18'0 0.0
2018-Jun-07 17:01N 28°56' W 095°18'0 0.2
2018-Jun-07 16:29N 28°56' W 095°18'1 0.9
2018-Jun-07 15:56N 28°56' W 095°18'2 3.9
2018-Jun-07 15:31N 28°55' W 095°17'0 0.5
2018-Jun-07 15:00N 28°55' W 095°17'1 2.4
2018-Jun-07 14:30N 28°54' W 095°16'2 4.6
2018-Jun-07 14:01N 28°56' W 095°17'1 2.3
2018-Jun-07 13:27N 28°56' W 095°18'0 0.1
2018-Jun-07 12:59N 28°56' W 095°18'0 0.0
2018-Jun-07 12:29N 28°56' W 095°18'0 0.0
2018-Jun-07 11:59N 28°56' W 095°18'0 0.0
2018-Jun-07 11:18N 28°56' W 095°18'0 0.0
2018-Jun-07 10:55N 28°56' W 095°18'0 0.0
2018-Jun-07 10:28N 28°56' W 095°18'0 0.0
2018-Jun-07 09:58N 28°56' W 095°18'0 0.0
2018-Jun-07 09:16N 28°56' W 095°18'0 0.0
2018-Jun-07 08:51N 28°56' W 095°18'0 0.0
2018-Jun-07 08:21N 28°56' W 095°18'0 0.0
2018-Jun-07 08:00N 28°56' W 095°18'0 0.2
2018-Jun-07 07:20N 28°56' W 095°18'0 0.6
2018-Jun-07 06:36N 28°56' W 095°18'0 0.5
2018-Jun-07 06:31N 28°56' W 095°18'2 3.3
2018-Jun-07 05:56N 28°55' W 095°17'2 3.9
2018-Jun-07 05:28N 28°53' W 095°16'2 3.0
2018-Jun-07 04:57N 28°54' W 095°17'2 4.3
2018-Jun-07 04:30N 28°53' W 095°15'0 0.5
2018-Jun-07 04:00N 28°53' W 095°16'2 3.7
2018-Jun-07 03:28N 28°55' W 095°17'2 4.4
2018-Jun-07 03:01N 28°56' W 095°18'0 0.6
2018-Jun-07 02:30N 28°56' W 095°18'0 0.0
2018-Jun-07 01:54N 28°56' W 095°18'0 0.0
2018-Jun-07 01:23N 28°56' W 095°18'0 0.0
2018-Jun-07 01:00N 28°56' W 095°18'0 0.0
2018-Jun-07 00:30N 28°56' W 095°18'0 0.1
2018-Jun-06 23:59N 28°56' W 095°18'0 0.2
2018-Jun-06 23:31N 28°56' W 095°18'1 2.3
2018-Jun-06 22:58N 28°56' W 095°17'2 3.8
2018-Jun-06 22:30N 28°54' W 095°17'1 0.4
2018-Jun-06 21:14N 28°54' W 095°16'1 1.4
2018-Jun-06 20:50N 28°53' W 095°16'  
Track history (hours):
 
Tides and Currents Weather Stations Pressure Air Temp Water Temp Dewpoint Dewpoint Depression Visibility Wind Speed Wind Dir Waves Ship Positions

Ocean Tower

Owner: Tug Ocean Tower, Tampa, FL. More information available from US FCC via Universal Licensing System and Coast Guard Vessel Documentation Center.

Last reported at 2018-Jun-16 20:31 UTC. Time now 2018-Jun-18 11:35 UTC.
Position N 28°52' W 094°50'.

Length 34 m; draft 4.1 m.

Type: . MMSI: 367356580.

Date/timePositionNaut miles runAvg speedWind from/ knotsBaromVisibWave heightAir tempDewpointWater temp
2018-Jun-16 20:31N 28°52' W 094°50'110.1
2018-Jun-16 20:26N 28°52' W 094°51'410.1
2018-Jun-16 20:00N 28°53' W 094°56'510.1
2018-Jun-16 19:30N 28°53' W 095°01'510.4
2018-Jun-16 19:00N 28°54' W 095°07'510.4
2018-Jun-16 18:31N 28°55' W 095°13'4 8.7
2018-Jun-16 18:01N 28°56' W 095°18'2 3.3
2018-Jun-16 17:30N 28°57' W 095°20'0 0.3
2018-Jun-16 17:01N 28°57' W 095°20'0 0.0
2018-Jun-16 16:29N 28°57' W 095°20'0 0.0
2018-Jun-16 16:01N 28°57' W 095°20'0 0.0
2018-Jun-16 15:30N 28°57' W 095°20'0 0.0
2018-Jun-16 15:01N 28°57' W 095°20'0 0.0
2018-Jun-16 14:30N 28°57' W 095°20'0 0.0
2018-Jun-16 13:58N 28°57' W 095°20'0 0.0
2018-Jun-16 13:20N 28°57' W 095°20'0 0.0
2018-Jun-16 13:00N 28°57' W 095°20'0 0.0
2018-Jun-16 12:30N 28°57' W 095°20'0 0.0
2018-Jun-16 12:00N 28°57' W 095°20'0 0.0
2018-Jun-16 09:01N 28°57' W 095°20'0 0.0
2018-Jun-16 09:00N 28°57' W 095°20'0 0.0
2018-Jun-16 08:15N 28°57' W 095°20'0 0.0
2018-Jun-16 08:01N 28°57' W 095°20'0 0.0
2018-Jun-16 07:21N 28°57' W 095°20'0 0.0
2018-Jun-16 06:56N 28°57' W 095°20'1 2.9
2018-Jun-16 06:30N 28°56' W 095°18'0 0.4
2018-Jun-16 05:27N 28°56' W 095°18'1 3.2
2018-Jun-16 04:59N 28°55' W 095°17'1 3.1
2018-Jun-16 04:31N 28°54' W 095°16'1 2.2
2018-Jun-16 04:01N 28°55' W 095°17'1 2.3
2018-Jun-16 03:24N 28°54' W 095°16'1 1.8
2018-Jun-16 02:58N 28°53' W 095°16'1 2.3
2018-Jun-16 02:30N 28°54' W 095°16'1 1.5
2018-Jun-16 02:00N 28°53' W 095°16'0 0.7
2018-Jun-16 01:30N 28°53' W 095°16'1 2.5
2018-Jun-16 01:01N 28°54' W 095°17'2 3.4
2018-Jun-16 00:19N 28°52' W 095°15'1 2.4
2018-Jun-15 23:59N 28°53' W 095°16'1 2.4
2018-Jun-15 23:30N 28°54' W 095°16'2 3.7
2018-Jun-15 23:00N 28°53' W 095°15'2 3.4
2018-Jun-15 22:31N 28°51' W 095°14'1 2.5
2018-Jun-15 22:00N 28°52' W 095°15'1 2.6
2018-Jun-15 21:31N 28°53' W 095°16'1 1.2
2018-Jun-15 20:58N 28°53' W 095°16'2 3.4
2018-Jun-15 20:27N 28°52' W 095°15'1 0.9
2018-Jun-15 19:49N 28°52' W 095°14'1 1.8
2018-Jun-15 19:29N 28°52' W 095°15'1 2.6
2018-Jun-15 19:00N 28°53' W 095°16'1 1.6
2018-Jun-15 18:27N 28°53' W 095°15'1 2.4
2018-Jun-15 18:00N 28°53' W 095°16'2 4.0
2018-Jun-15 17:31N 28°55' W 095°17'2 3.6
2018-Jun-15 17:00N 28°56' W 095°18'0 0.1
2018-Jun-15 16:30N 28°56' W 095°18'0 0.0
2018-Jun-15 16:00N 28°56' W 095°18'0 0.0
2018-Jun-15 14:56N 28°56' W 095°18'0 0.0
2018-Jun-15 14:30N 28°56' W 095°18'0 0.0
2018-Jun-15 13:58N 28°56' W 095°18'0 0.0
2018-Jun-15 13:31N 28°56' W 095°18'0 0.0
2018-Jun-15 13:00N 28°56' W 095°18'0 0.0
2018-Jun-15 12:30N 28°56' W 095°18'0 0.0
2018-Jun-15 12:00N 28°56' W 095°18'0 0.0
2018-Jun-15 11:29N 28°56' W 095°18'0 0.0
2018-Jun-15 11:00N 28°56' W 095°18'0 0.0
2018-Jun-15 10:29N 28°56' W 095°18'0 0.0
2018-Jun-15 09:59N 28°56' W 095°18'0 0.0
2018-Jun-15 09:24N 28°56' W 095°18'0 0.0
2018-Jun-15 09:00N 28°56' W 095°18'0 0.0
2018-Jun-15 08:30N 28°56' W 095°18'1 1.8
2018-Jun-15 07:59N 28°56' W 095°17'2 4.9
2018-Jun-15 07:29N 28°54' W 095°16'1 2.1
2018-Jun-15 06:59N 28°54' W 095°17'2 4.2
2018-Jun-15 06:30N 28°56' W 095°18'1 1.3
2018-Jun-15 06:00N 28°56' W 095°18'0 0.2
2018-Jun-15 04:36N 28°56' W 095°18'0 0.4
2018-Jun-15 04:31N 28°56' W 095°18'0 0.1
2018-Jun-15 03:51N 28°56' W 095°18'0 0.0
2018-Jun-15 03:28N 28°56' W 095°18'0 0.0
2018-Jun-15 02:58N 28°56' W 095°18'0 0.0
2018-Jun-15 02:30N 28°56' W 095°18'0 0.0
2018-Jun-15 01:57N 28°56' W 095°18'0 0.1
2018-Jun-15 01:29N 28°56' W 095°18'0 0.1
2018-Jun-15 00:53N 28°56' W 095°18'0 0.6
2018-Jun-15 00:31N 28°56' W 095°18'1 2.3
2018-Jun-15 00:00N 28°56' W 095°17'3 5.0
2018-Jun-14 23:27N 28°53' W 095°16'1 1.1
2018-Jun-14 22:59N 28°53' W 095°16'2 4.8
2018-Jun-14 22:29N 28°55' W 095°17'2 3.4
2018-Jun-14 21:58N 28°56' W 095°18'0 0.4
2018-Jun-14 21:30N 28°56' W 095°18'0 0.1
2018-Jun-14 19:44N 28°56' W 095°18'0 0.5
2018-Jun-14 19:24N 28°56' W 095°18'0 0.0
2018-Jun-14 19:00N 28°56' W 095°18'0 0.1
2018-Jun-14 18:29N 28°56' W 095°18'0 0.3
2018-Jun-14 17:58N 28°57' W 095°18'0 0.2
2018-Jun-14 17:29N 28°56' W 095°18'0 0.0
2018-Jun-14 16:12N 28°56' W 095°18'0 0.1
2018-Jun-14 15:57N 28°56' W 095°18'0 0.0
2018-Jun-14 15:25N 28°56' W 095°18'0 0.0
2018-Jun-14 14:55N 28°56' W 095°18'0 0.0
2018-Jun-14 14:30N 28°56' W 095°18'0 0.0
2018-Jun-14 13:58N 28°56' W 095°18'0 0.1
2018-Jun-14 13:27N 28°56' W 095°18'0 0.2
2018-Jun-14 13:00N 28°56' W 095°18'0 0.0
2018-Jun-14 12:15N 28°56' W 095°18'0 0.0
2018-Jun-14 11:55N 28°56' W 095°18'0 0.1
2018-Jun-14 10:04N 28°56' W 095°18'0 0.0
2018-Jun-14 09:59N 28°56' W 095°18'2 2.9
2018-Jun-14 09:14N 28°55' W 095°17'2 4.1
2018-Jun-14 08:46N 28°53' W 095°16'1 4.0
2018-Jun-14 08:31N 28°54' W 095°17'2 4.1
2018-Jun-14 08:01N 28°56' W 095°17'1 2.2
2018-Jun-14 07:27N 28°56' W 095°18'0 0.4
2018-Jun-14 07:00N 28°56' W 095°18'0 0.2
2018-Jun-14 06:30N 28°56' W 095°19'0 0.0
2018-Jun-14 05:59N 28°56' W 095°18'0 0.0
2018-Jun-14 05:25N 28°56' W 095°18'0 0.0
2018-Jun-14 04:58N 28°56' W 095°18'0 0.0
2018-Jun-14 04:31N 28°56' W 095°18'0 0.2
2018-Jun-14 04:00N 28°56' W 095°18'0 0.0
2018-Jun-14 03:28N 28°56' W 095°18'0 0.0
2018-Jun-14 02:59N 28°56' W 095°18'0 0.0
2018-Jun-14 02:28N 28°56' W 095°18'0 0.1
2018-Jun-14 01:46N 28°56' W 095°18'0 0.6
2018-Jun-14 01:31N 28°56' W 095°18'0 0.6
2018-Jun-14 00:53N 28°56' W 095°18'1 3.1
2018-Jun-14 00:29N 28°55' W 095°17'1 1.2
2018-Jun-14 00:00N 28°55' W 095°17'2 3.8
2018-Jun-13 23:27N 28°53' W 095°16'2 4.0
2018-Jun-13 22:59N 28°55' W 095°17'2 4.7
2018-Jun-13 22:31N 28°56' W 095°18'0 0.2
2018-Jun-13 21:57N 28°56' W 095°18'0 0.1
2018-Jun-13 21:24N 28°56' W 095°18'0 0.2
2018-Jun-13 20:56N 28°56' W 095°18'0 0.2
2018-Jun-13 20:30N 28°56' W 095°18'0 0.0
2018-Jun-13 20:01N 28°56' W 095°18'0 0.0
2018-Jun-13 19:31N 28°56' W 095°18'0 0.0
2018-Jun-13 19:00N 28°56' W 095°18'0 0.0
2018-Jun-13 18:30N 28°56' W 095°18'1 2.1
2018-Jun-13 18:00N 28°57' W 095°20'0 0.4
2018-Jun-13 17:30N 28°57' W 095°20'0 1.0
2018-Jun-13 17:01N 28°57' W 095°20'0 0.9
2018-Jun-13 16:30N 28°57' W 095°20'0 0.0
2018-Jun-13 16:00N 28°57' W 095°20'2 2.7
2018-Jun-13 15:18N 28°56' W 095°18'1 2.8
2018-Jun-13 14:59N 28°55' W 095°17'3 4.5
2018-Jun-13 14:25N 28°53' W 095°16'1 2.3
2018-Jun-13 14:00N 28°54' W 095°17'1 2.9
2018-Jun-13 13:30N 28°55' W 095°17'2 3.7
2018-Jun-13 13:00N 28°57' W 095°18'0 0.3
2018-Jun-13 12:29N 28°56' W 095°18'0 0.2
2018-Jun-13 11:58N 28°56' W 095°18'0 0.0
2018-Jun-13 10:46N 28°56' W 095°18'0 0.7
2018-Jun-13 10:29N 28°57' W 095°18'0 0.9
2018-Jun-13 09:56N 28°56' W 095°18'2 3.6
2018-Jun-13 09:23N 28°55' W 095°17'1 3.2
2018-Jun-13 09:00N 28°54' W 095°17'1 1.4
2018-Jun-13 08:18N 28°54' W 095°17'1 4.0
2018-Jun-13 08:00N 28°53' W 095°16'3 4.4
2018-Jun-13 07:15N 28°51' W 095°14'1 2.6
2018-Jun-13 06:47N 28°51' W 095°13'1 2.5
2018-Jun-13 06:20N 28°51' W 095°13'1 2.6
2018-Jun-13 05:50N 28°52' W 095°14'1 2.6
2018-Jun-13 05:30N 28°53' W 095°15'1 2.4
2018-Jun-13 04:59N 28°54' W 095°16'2 2.5
2018-Jun-13 04:23N 28°55' W 095°17'2 4.3
2018-Jun-13 04:00N 28°56' W 095°18'0 0.2
2018-Jun-13 03:07N 28°56' W 095°18'0 0.3
2018-Jun-13 02:18N 28°56' W 095°18'0 0.5
2018-Jun-13 01:54N 28°57' W 095°18'0 0.1
2018-Jun-13 01:30N 28°57' W 095°18'0 0.0
2018-Jun-13 00:54N 28°57' W 095°18'0 0.1
2018-Jun-13 00:29N 28°57' W 095°18'0 1.0
2018-Jun-13 00:00N 28°56' W 095°18'2 3.9
2018-Jun-12 23:29N 28°55' W 095°17'2 3.9
2018-Jun-12 22:51N 28°53' W 095°15'1 2.3
2018-Jun-12 22:29N 28°53' W 095°16'1 1.3
2018-Jun-12 22:00N 28°54' W 095°16'1 1.1
2018-Jun-12 21:30N 28°53' W 095°16'2 4.0
2018-Jun-12 21:00N 28°55' W 095°17'1 3.0
2018-Jun-12 20:30N 28°56' W 095°18'0 0.1
2018-Jun-12 19:59N 28°56' W 095°18'0 0.1
2018-Jun-12 19:18N 28°56' W 095°18'0 0.0
2018-Jun-12 18:35N 28°56' W 095°18'0 1.4
2018-Jun-12 18:30N 28°56' W 095°18'0 0.6
2018-Jun-12 17:59N 28°56' W 095°18'2 3.5
2018-Jun-12 17:30N 28°55' W 095°17'2 4.0
2018-Jun-12 17:00N 28°53' W 095°15'1 2.8
2018-Jun-12 16:30N 28°54' W 095°17'2 4.0
2018-Jun-12 16:00N 28°56' W 095°17'1 1.8
2018-Jun-12 15:29N 28°57' W 095°18'0 0.2
2018-Jun-12 15:01N 28°57' W 095°18'0 0.1
2018-Jun-12 13:38N 28°56' W 095°18'0 0.0
2018-Jun-12 13:12N 28°56' W 095°18'0 0.3
2018-Jun-12 13:00N 28°57' W 095°18'0 0.1
2018-Jun-12 12:29N 28°56' W 095°18'0 0.0
2018-Jun-12 11:46N 28°56' W 095°18'0 0.0
2018-Jun-12 11:31N 28°56' W 095°18'0 0.0
2018-Jun-12 02:30N 28°56' W 095°19'0 0.1
2018-Jun-12 02:00N 28°56' W 095°19'0 0.3
2018-Jun-12 01:29N 28°56' W 095°18'0 0.0
2018-Jun-12 00:59N 28°56' W 095°18'0 0.2
2018-Jun-11 23:54N 28°56' W 095°19'0 0.0
2018-Jun-11 23:30N 28°56' W 095°19'0 0.0
2018-Jun-11 23:01N 28°56' W 095°19'0 0.0
2018-Jun-11 22:29N 28°56' W 095°19'0 0.0
2018-Jun-11 21:58N 28°56' W 095°19'0 0.0
2018-Jun-11 21:30N 28°56' W 095°19'0 0.0
2018-Jun-11 21:00N 28°56' W 095°19'0 0.0
2018-Jun-11 20:30N 28°56' W 095°19'0 0.0
2018-Jun-11 19:59N 28°56' W 095°18'0 0.0
2018-Jun-11 19:30N 28°56' W 095°18'0 0.2
2018-Jun-11 18:59N 28°56' W 095°18'0 0.1
2018-Jun-11 18:30N 28°56' W 095°18'0 0.4
2018-Jun-11 17:54N 28°56' W 095°18'1 2.4
2018-Jun-11 17:26N 28°56' W 095°17'2 4.2
2018-Jun-11 17:01N 28°54' W 095°16'2 3.4
2018-Jun-11 16:27N 28°53' W 095°15'2 2.2
2018-Jun-11 15:29N 28°54' W 095°16'1 2.1
2018-Jun-11 14:49N 28°53' W 095°16'1 3.3
2018-Jun-11 14:29N 28°54' W 095°17'2 3.8
2018-Jun-11 14:00N 28°56' W 095°17'1 2.4
2018-Jun-11 13:30N 28°56' W 095°18'0 0.1
2018-Jun-11 12:56N 28°56' W 095°18'0 0.0
2018-Jun-11 12:29N 28°56' W 095°18'0 0.0
2018-Jun-11 11:59N 28°56' W 095°18'0 0.0
2018-Jun-11 11:30N 28°56' W 095°18'0 0.0
2018-Jun-11 10:58N 28°56' W 095°18'0 0.0
2018-Jun-11 10:30N 28°56' W 095°18'0 0.1
2018-Jun-11 10:00N 28°56' W 095°18'0 0.1
2018-Jun-11 09:31N 28°56' W 095°18'0 0.0
2018-Jun-11 08:59N 28°56' W 095°18'0 0.0
2018-Jun-11 08:29N 28°56' W 095°18'0 0.0
2018-Jun-11 07:59N 28°56' W 095°18'0 0.1
2018-Jun-11 07:25N 28°56' W 095°18'0 0.5
2018-Jun-11 06:48N 28°56' W 095°18'2 4.0
2018-Jun-11 06:25N 28°55' W 095°17'2 4.3
2018-Jun-11 06:00N 28°53' W 095°16'1 2.9
2018-Jun-11 05:30N 28°55' W 095°17'1 1.2
2018-Jun-11 04:45N 28°54' W 095°17'1 3.9
2018-Jun-11 04:29N 28°55' W 095°17'2 4.0
2018-Jun-11 04:01N 28°57' W 095°18'0 0.1
2018-Jun-11 03:04N 28°56' W 095°18'0 0.1
2018-Jun-11 02:59N 28°56' W 095°18'0 0.0
2018-Jun-11 02:01N 28°56' W 095°18'0 0.4
2018-Jun-11 01:59N 28°56' W 095°18'0 0.0
2018-Jun-11 01:25N 28°56' W 095°18'0 0.0
2018-Jun-11 00:59N 28°56' W 095°18'0 0.0
2018-Jun-11 00:17N 28°56' W 095°18'0 0.0
2018-Jun-10 23:02N 28°56' W 095°18'0 0.0
2018-Jun-10 22:53N 28°56' W 095°18'0 0.0
2018-Jun-10 21:08N 28°56' W 095°18'0 0.2
2018-Jun-10 20:41N 28°56' W 095°18'0 0.1
2018-Jun-10 19:18N 28°56' W 095°18'0 0.9
2018-Jun-10 18:56N 28°56' W 095°18'1 3.0
2018-Jun-10 18:30N 28°55' W 095°17'1 2.6
2018-Jun-10 18:00N 28°54' W 095°17'1 2.6
2018-Jun-10 17:30N 28°53' W 095°16'2 4.1
2018-Jun-10 17:01N 28°55' W 095°17'2 1.3
2018-Jun-10 15:30N 28°56' W 095°18'0 0.1
2018-Jun-10 14:58N 28°56' W 095°18'0 0.1
2018-Jun-10 13:48N 28°56' W 095°18'0 0.0
2018-Jun-10 13:24N 28°56' W 095°18'0 0.0
2018-Jun-10 13:00N 28°56' W 095°18'0 0.0
2018-Jun-10 12:30N 28°56' W 095°18'0 0.0
2018-Jun-10 12:00N 28°56' W 095°18'0 0.0
2018-Jun-10 11:30N 28°56' W 095°18'0 0.0
2018-Jun-10 11:00N 28°56' W 095°18'0 0.0
2018-Jun-10 10:30N 28°56' W 095°18'0 0.0
2018-Jun-10 09:42N 28°56' W 095°18'0 0.0
2018-Jun-10 09:12N 28°56' W 095°18'0 0.0
2018-Jun-10 09:00N 28°56' W 095°18'0 0.0
2018-Jun-10 08:27N 28°56' W 095°18'0 0.0
2018-Jun-10 07:57N 28°56' W 095°18'0 0.1
2018-Jun-10 07:19N 28°56' W 095°18'0 1.5
2018-Jun-10 07:00N 28°56' W 095°18'2 4.6
2018-Jun-10 06:30N 28°54' W 095°16'1 1.3
2018-Jun-10 05:59N 28°54' W 095°17'2 4.1
2018-Jun-10 05:30N 28°56' W 095°17'1 1.6
2018-Jun-10 04:40N 28°56' W 095°19'1 0.0
2018-Jun-09 04:56N 28°56' W 095°18'0 0.3
2018-Jun-09 03:42N 28°56' W 095°18'0 0.0
2018-Jun-09 03:12N 28°56' W 095°18'0 0.1
2018-Jun-09 02:58N 28°56' W 095°18'0 0.0
2018-Jun-09 01:52N 28°56' W 095°18'0 0.3
2018-Jun-09 01:26N 28°56' W 095°18'0 0.0
2018-Jun-08 14:36N 28°56' W 095°18'0 0.0
2018-Jun-08 14:30N 28°56' W 095°18'1 0.8
2018-Jun-08 13:47N 28°56' W 095°18'1 3.7
2018-Jun-08 13:30N 28°55' W 095°17'2 3.9
2018-Jun-08 12:53N 28°53' W 095°15'1 3.2
2018-Jun-08 12:30N 28°54' W 095°16'1 1.6
2018-Jun-08 12:00N 28°54' W 095°17'2 3.2
2018-Jun-08 11:30N 28°52' W 095°15'2 3.2
2018-Jun-08 10:58N 28°51' W 095°14'0 1.1
2018-Jun-08 10:30N 28°52' W 095°14'2 3.1
2018-Jun-08 10:00N 28°53' W 095°15'2 3.1
2018-Jun-08 09:30N 28°54' W 095°16'1 2.2
2018-Jun-08 09:00N 28°53' W 095°18'1 2.4
2018-Jun-08 08:30N 28°53' W 095°16'2 3.5
2018-Jun-08 08:00N 28°55' W 095°17'2 2.9
2018-Jun-08 07:22N 28°56' W 095°18'0 0.3
2018-Jun-08 06:51N 28°56' W 095°18'0 0.8
2018-Jun-08 06:30N 28°57' W 095°18'1 1.3
2018-Jun-08 06:00N 28°56' W 095°18'2 3.8
2018-Jun-08 05:30N 28°55' W 095°17'3 3.8
2018-Jun-08 04:51N 28°52' W 095°15'1 3.2
2018-Jun-08 04:24N 28°53' W 095°16'2 1.6
2018-Jun-08 03:28N 28°52' W 095°17'1 1.3
2018-Jun-08 03:00N 28°53' W 095°17'2 1.6
2018-Jun-08 01:48N 28°51' W 095°16'1 3.1
2018-Jun-08 01:28N 28°52' W 095°16'1 2.4
2018-Jun-08 01:01N 28°53' W 095°16'2 3.4
2018-Jun-08 00:30N 28°55' W 095°17'2 4.4
2018-Jun-08 00:00N 28°57' W 095°18'0 0.1
2018-Jun-07 23:28N 28°56' W 095°18'0 0.3
2018-Jun-07 22:55N 28°56' W 095°18'0 0.3
2018-Jun-07 22:30N 28°56' W 095°18'2 2.9
2018-Jun-07 21:58N 28°55' W 095°17'2 4.3
2018-Jun-07 21:26N 28°53' W 095°17'2 1.4
2018-Jun-07 20:20N 28°52' W 095°17'2 2.6
2018-Jun-07 19:32N 28°54' W 095°17'0 3.3
2018-Jun-07 19:27N 28°53' W 095°16'0 0.9
2018-Jun-07 19:00N 28°54' W 095°17'2 4.5
2018-Jun-07 18:31N 28°56' W 095°18'1 1.9
2018-Jun-07 18:00N 28°57' W 095°18'0 0.1
2018-Jun-07 17:29N 28°56' W 095°18'0 0.0
2018-Jun-07 17:01N 28°56' W 095°18'0 0.2
2018-Jun-07 16:29N 28°56' W 095°18'1 0.9
2018-Jun-07 15:56N 28°56' W 095°18'2 3.9
2018-Jun-07 15:31N 28°55' W 095°17'0 0.5
2018-Jun-07 15:00N 28°55' W 095°17'1 2.4
2018-Jun-07 14:30N 28°54' W 095°16'2 4.6
2018-Jun-07 14:01N 28°56' W 095°17'1 2.3
2018-Jun-07 13:27N 28°56' W 095°18'0 0.1
2018-Jun-07 12:59N 28°56' W 095°18'0 0.0
2018-Jun-07 12:29N 28°56' W 095°18'0 0.0
2018-Jun-07 11:59N 28°56' W 095°18'0 0.0
2018-Jun-07 11:18N 28°56' W 095°18'0 0.0
2018-Jun-07 10:55N 28°56' W 095°18'0 0.0
2018-Jun-07 10:28N 28°56' W 095°18'0 0.0
2018-Jun-07 09:58N 28°56' W 095°18'0 0.0
2018-Jun-07 09:16N 28°56' W 095°18'0 0.0
2018-Jun-07 08:51N 28°56' W 095°18'0 0.0
2018-Jun-07 08:21N 28°56' W 095°18'0 0.0
2018-Jun-07 08:00N 28°56' W 095°18'0 0.2
2018-Jun-07 07:20N 28°56' W 095°18'0 0.6
2018-Jun-07 06:36N 28°56' W 095°18'0 0.5
2018-Jun-07 06:31N 28°56' W 095°18'2 3.3
2018-Jun-07 05:56N 28°55' W 095°17'2 3.9
2018-Jun-07 05:28N 28°53' W 095°16'2 3.0
2018-Jun-07 04:57N 28°54' W 095°17'2 4.3
2018-Jun-07 04:30N 28°53' W 095°15'0 0.5
2018-Jun-07 04:00N 28°53' W 095°16'2 3.7
2018-Jun-07 03:28N 28°55' W 095°17'2 4.4
2018-Jun-07 03:01N 28°56' W 095°18'0 0.6
2018-Jun-07 02:30N 28°56' W 095°18'0 0.0
2018-Jun-07 01:54N 28°56' W 095°18'0 0.0
2018-Jun-07 01:23N 28°56' W 095°18'0 0.0
2018-Jun-07 01:00N 28°56' W 095°18'0 0.0
2018-Jun-07 00:30N 28°56' W 095°18'0 0.1
2018-Jun-06 23:59N 28°56' W 095°18'0 0.2
2018-Jun-06 23:31N 28°56' W 095°18'1 2.3
2018-Jun-06 22:58N 28°56' W 095°17'2 3.8
2018-Jun-06 22:30N 28°54' W 095°17'1 0.4
2018-Jun-06 21:14N 28°54' W 095°16'1 1.4
2018-Jun-06 20:50N 28°53' W 095°16'  

Dump ship's entire track history